sensor_id;sensor_type;location;lat;lon;timestamp;pressure;altitude;pressure_sealevel;temperature;humidity
40490;BME280;26196;52.302;10.572;2022-09-09T00:03:23;100030.75;;;21.13;48.33
40490;BME280;26196;52.302;10.572;2022-09-09T00:07:45;100029.28;;;21.09;48.97
40490;BME280;26196;52.302;10.572;2022-09-09T00:16:04;100039.94;;;21.09;48.58
40490;BME280;26196;52.302;10.572;2022-09-09T00:24:40;100034.13;;;21.04;48.63
40490;BME280;26196;52.302;10.572;2022-09-09T00:28:50;100034.13;;;21.04;48.60
40490;BME280;26196;52.302;10.572;2022-09-09T00:33:00;100036.09;;;21.02;48.34
40490;BME280;26196;52.302;10.572;2022-09-09T00:37:02;100035.34;;;21.00;48.68
40490;BME280;26196;52.302;10.572;2022-09-09T00:54:18;100027.97;;;20.92;48.06
40490;BME280;26196;52.302;10.572;2022-09-09T00:58:21;100033.28;;;20.92;48.27
40490;BME280;26196;52.302;10.572;2022-09-09T01:02:50;100030.72;;;20.90;48.85
40490;BME280;26196;52.302;10.572;2022-09-09T01:07:02;100034.38;;;20.89;48.76
40490;BME280;26196;52.302;10.572;2022-09-09T01:11:04;100040.66;;;20.88;48.23
40490;BME280;26196;52.302;10.572;2022-09-09T01:15:18;100032.06;;;20.85;48.03
40490;BME280;26196;52.302;10.572;2022-09-09T01:19:52;100031.13;;;20.86;48.38
40490;BME280;26196;52.302;10.572;2022-09-09T01:28:17;100034.97;;;20.82;48.26
40490;BME280;26196;52.302;10.572;2022-09-09T01:33:01;100032.41;;;20.80;49.62
40490;BME280;26196;52.302;10.572;2022-09-09T01:36:58;100041.25;;;20.81;48.48
40490;BME280;26196;52.302;10.572;2022-09-09T01:41:00;100042.34;;;20.78;48.92
40490;BME280;26196;52.302;10.572;2022-09-09T01:45:01;100030.00;;;20.77;48.64
40490;BME280;26196;52.302;10.572;2022-09-09T01:49:03;100030.13;;;20.75;48.33
40490;BME280;26196;52.302;10.572;2022-09-09T01:53:05;100026.75;;;20.73;48.56
40490;BME280;26196;52.302;10.572;2022-09-09T01:57:29;100027.09;;;20.69;49.08
40490;BME280;26196;52.302;10.572;2022-09-09T02:10:02;100023.69;;;20.67;49.16
40490;BME280;26196;52.302;10.572;2022-09-09T02:14:19;100028.31;;;20.65;48.17
40490;BME280;26196;52.302;10.572;2022-09-09T02:18:28;100031.06;;;20.63;48.13
40490;BME280;26196;52.302;10.572;2022-09-09T02:22:31;100026.94;;;20.59;49.16
40490;BME280;26196;52.302;10.572;2022-09-09T02:26:38;100029.72;;;20.58;49.21
40490;BME280;26196;52.302;10.572;2022-09-09T02:30:42;100031.41;;;20.59;49.12
40490;BME280;26196;52.302;10.572;2022-09-09T02:34:53;100026.22;;;20.57;48.63
40490;BME280;26196;52.302;10.572;2022-09-09T02:38:56;100027.19;;;20.56;48.53
40490;BME280;26196;52.302;10.572;2022-09-09T02:42:57;100017.53;;;20.55;48.63
40490;BME280;26196;52.302;10.572;2022-09-09T02:51:27;100015.81;;;20.54;48.82
40490;BME280;26196;52.302;10.572;2022-09-09T02:55:47;100019.34;;;20.54;49.11
40490;BME280;26196;52.302;10.572;2022-09-09T02:59:49;100023.03;;;20.52;48.83
40490;BME280;26196;52.302;10.572;2022-09-09T03:03:50;100024.81;;;20.51;48.36
40490;BME280;26196;52.302;10.572;2022-09-09T03:07:50;100017.22;;;20.47;48.42
40490;BME280;26196;52.302;10.572;2022-09-09T03:11:51;100018.06;;;20.47;48.61
40490;BME280;26196;52.302;10.572;2022-09-09T03:15:52;100020.22;;;20.42;48.70
40490;BME280;26196;52.302;10.572;2022-09-09T03:19:52;100022.16;;;20.51;53.01
40490;BME280;26196;52.302;10.572;2022-09-09T03:23:54;100015.06;;;20.52;53.62
40490;BME280;26196;52.302;10.572;2022-09-09T03:27:55;100016.16;;;20.49;53.45
40490;BME280;26196;52.302;10.572;2022-09-09T03:31:56;100025.69;;;20.52;53.58
40490;BME280;26196;52.302;10.572;2022-09-09T03:35:57;100033.69;;;20.52;53.71
40490;BME280;26196;52.302;10.572;2022-09-09T03:39:57;100024.13;;;20.49;54.19
40490;BME280;26196;52.302;10.572;2022-09-09T03:43:59;100025.06;;;20.48;53.78
40490;BME280;26196;52.302;10.572;2022-09-09T03:47:59;100033.69;;;20.52;53.76
40490;BME280;26196;52.302;10.572;2022-09-09T03:52:00;100032.69;;;20.53;53.72
40490;BME280;26196;52.302;10.572;2022-09-09T03:56:01;100028.22;;;20.53;54.09
40490;BME280;26196;52.302;10.572;2022-09-09T04:00:06;100016.16;;;20.49;54.00
40490;BME280;26196;52.302;10.572;2022-09-09T04:04:07;100019.50;;;20.51;53.92
40490;BME280;26196;52.302;10.572;2022-09-09T04:08:09;100018.56;;;20.52;53.91
40490;BME280;26196;52.302;10.572;2022-09-09T04:12:09;100022.31;;;20.50;53.75
40490;BME280;26196;52.302;10.572;2022-09-09T04:16:13;100019.88;;;20.47;53.21
40490;BME280;26196;52.302;10.572;2022-09-09T04:20:14;100020.00;;;20.45;53.26
40490;BME280;26196;52.302;10.572;2022-09-09T04:24:15;100023.50;;;20.46;53.65
40490;BME280;26196;52.302;10.572;2022-09-09T04:28:17;100019.00;;;20.46;53.61
40490;BME280;26196;52.302;10.572;2022-09-09T04:32:18;100022.66;;;20.45;53.54
40490;BME280;26196;52.302;10.572;2022-09-09T04:36:19;100022.06;;;20.42;53.61
40490;BME280;26196;52.302;10.572;2022-09-09T04:40:19;100030.13;;;20.40;53.33
40490;BME280;26196;52.302;10.572;2022-09-09T04:44:22;100028.44;;;20.39;53.31
40490;BME280;26196;52.302;10.572;2022-09-09T04:48:22;100033.75;;;20.39;53.38
40490;BME280;26196;52.302;10.572;2022-09-09T04:52:24;100028.78;;;20.35;53.26
40490;BME280;26196;52.302;10.572;2022-09-09T04:56:25;100039.53;;;20.33;53.14
40490;BME280;26196;52.302;10.572;2022-09-09T05:00:28;100041.34;;;20.32;53.30
40490;BME280;26196;52.302;10.572;2022-09-09T05:04:28;100039.41;;;20.35;53.19
40490;BME280;26196;52.302;10.572;2022-09-09T05:08:29;100040.25;;;20.35;52.87
40490;BME280;26196;52.302;10.572;2022-09-09T05:12:29;100045.34;;;20.38;53.03
40490;BME280;26196;52.302;10.572;2022-09-09T05:16:30;100049.72;;;20.39;52.96
40490;BME280;26196;52.302;10.572;2022-09-09T05:20:30;100052.38;;;20.39;51.74
40490;BME280;26196;52.302;10.572;2022-09-09T05:24:32;100041.00;;;20.37;51.49
40490;BME280;26196;52.302;10.572;2022-09-09T05:28:36;100045.34;;;20.38;50.72
40490;BME280;26196;52.302;10.572;2022-09-09T05:32:36;100051.53;;;20.39;50.97
40490;BME280;26196;52.302;10.572;2022-09-09T05:36:37;100045.72;;;20.33;50.75
40490;BME280;26196;52.302;10.572;2022-09-09T05:40:37;100052.59;;;20.36;50.68
40490;BME280;26196;52.302;10.572;2022-09-09T05:44:37;100053.44;;;20.37;50.31
40490;BME280;26196;52.302;10.572;2022-09-09T05:48:40;100057.28;;;20.32;51.02
40490;BME280;26196;52.302;10.572;2022-09-09T05:52:40;100066.84;;;20.35;50.57
40490;BME280;26196;52.302;10.572;2022-09-09T05:56:41;100059.84;;;20.34;50.58
40490;BME280;26196;52.302;10.572;2022-09-09T06:00:42;100058.13;;;20.33;50.54
40490;BME280;26196;52.302;10.572;2022-09-09T06:04:44;100057.41;;;20.31;52.75
40490;BME280;26196;52.302;10.572;2022-09-09T06:08:45;100074.06;;;20.33;50.83
40490;BME280;26196;52.302;10.572;2022-09-09T06:12:45;100065.38;;;20.31;50.77
40490;BME280;26196;52.302;10.572;2022-09-09T06:16:45;100062.00;;;20.29;50.63
40490;BME280;26196;52.302;10.572;2022-09-09T06:21:00;100062.00;;;20.29;50.24
40490;BME280;26196;52.302;10.572;2022-09-09T06:25:01;100062.84;;;20.29;50.42
40490;BME280;26196;52.302;10.572;2022-09-09T06:29:02;100071.88;;;20.27;50.37
40490;BME280;26196;52.302;10.572;2022-09-09T06:33:04;100072.63;;;20.29;50.37
40490;BME280;26196;52.302;10.572;2022-09-09T06:37:04;100069.97;;;20.29;50.29
40490;BME280;26196;52.302;10.572;2022-09-09T06:41:10;100069.13;;;20.28;50.37
40490;BME280;26196;52.302;10.572;2022-09-09T06:45:12;100075.28;;;20.29;50.62
40490;BME280;26196;52.302;10.572;2022-09-09T06:49:12;100065.84;;;20.25;50.36
40490;BME280;26196;52.302;10.572;2022-09-09T06:53:16;100064.88;;;20.26;50.43
40490;BME280;26196;52.302;10.572;2022-09-09T06:57:16;100073.69;;;20.26;50.77
40490;BME280;26196;52.302;10.572;2022-09-09T07:01:19;100063.50;;;20.20;50.47
40490;BME280;26196;52.302;10.572;2022-09-09T07:05:20;100069.47;;;20.24;50.92
40490;BME280;26196;52.302;10.572;2022-09-09T07:09:21;100064.88;;;20.26;50.97
40490;BME280;26196;52.302;10.572;2022-09-09T07:13:25;100061.34;;;20.25;50.93
40490;BME280;26196;52.302;10.572;2022-09-09T07:17:26;100060.50;;;20.25;50.90
40490;BME280;26196;52.302;10.572;2022-09-09T07:21:29;100064.88;;;20.26;51.29
40490;BME280;26196;52.302;10.572;2022-09-09T07:25:30;100067.53;;;20.26;51.02
40490;BME280;26196;52.302;10.572;2022-09-09T07:29:30;100060.50;;;20.25;51.37
40490;BME280;26196;52.302;10.572;2022-09-09T07:33:33;100061.25;;;20.27;51.23
40490;BME280;26196;52.302;10.572;2022-09-09T07:37:36;100064.16;;;20.24;51.69
40490;BME280;26196;52.302;10.572;2022-09-09T07:41:40;100065.59;;;20.28;51.47
40490;BME280;26196;52.302;10.572;2022-09-09T07:45:41;100065.59;;;20.28;51.56
40490;BME280;26196;52.302;10.572;2022-09-09T07:49:42;100075.38;;;20.27;51.87
40490;BME280;26196;52.302;10.572;2022-09-09T07:53:42;100082.41;;;20.28;51.97
40490;BME280;26196;52.302;10.572;2022-09-09T07:57:43;100081.03;;;20.23;51.97
40490;BME280;26196;52.302;10.572;2022-09-09T08:01:49;100085.91;;;20.29;52.25
40490;BME280;26196;52.302;10.572;2022-09-09T08:05:50;100088.56;;;20.29;52.16
40490;BME280;26196;52.302;10.572;2022-09-09T08:09:51;100090.25;;;20.30;52.39
40490;BME280;26196;52.302;10.572;2022-09-09T08:13:52;100084.09;;;20.29;52.67
40490;BME280;26196;52.302;10.572;2022-09-09T08:17:53;100085.19;;;20.27;52.60
40490;BME280;26196;52.302;10.572;2022-09-09T08:21:53;100095.47;;;20.31;52.50
40490;BME280;26196;52.302;10.572;2022-09-09T08:25:54;100100.66;;;20.33;52.44
40490;BME280;26196;52.302;10.572;2022-09-09T08:29:54;100097.16;;;20.32;52.33
40490;BME280;26196;52.302;10.572;2022-09-09T08:33:57;100088.44;;;20.30;52.17
40490;BME280;26196;52.302;10.572;2022-09-09T08:37:59;100104.19;;;20.33;52.57
40490;BME280;26196;52.302;10.572;2022-09-09T08:46:13;100119.91;;;20.37;52.38
40490;BME280;26196;52.302;10.572;2022-09-09T08:50:27;100115.44;;;20.37;52.62
40490;BME280;26196;52.302;10.572;2022-09-09T08:54:33;100120.84;;;20.36;52.45
40490;BME280;26196;52.302;10.572;2022-09-09T08:58:45;100124.97;;;20.40;52.45
40490;BME280;26196;52.302;10.572;2022-09-09T09:11:40;100119.53;;;20.41;52.51
40490;BME280;26196;52.302;10.572;2022-09-09T09:15:46;100115.94;;;20.42;52.20
40490;BME280;26196;52.302;10.572;2022-09-09T09:19:49;100117.63;;;20.43;52.38
40490;BME280;26196;52.302;10.572;2022-09-09T09:23:58;100111.47;;;20.43;52.63
40490;BME280;26196;52.302;10.572;2022-09-09T09:28:22;100115.69;;;20.45;52.43
40490;BME280;26196;52.302;10.572;2022-09-09T09:32:24;100116.44;;;20.47;52.66
40490;BME280;26196;52.302;10.572;2022-09-09T09:36:42;100113.78;;;20.47;52.89
40490;BME280;26196;52.302;10.572;2022-09-09T09:40:49;100114.63;;;20.48;53.07
40490;BME280;26196;52.302;10.572;2022-09-09T09:44:51;100125.03;;;20.51;52.88
40490;BME280;26196;52.302;10.572;2022-09-09T09:49:03;100116.94;;;20.52;52.78
40490;BME280;26196;52.302;10.572;2022-09-09T09:53:06;100109.19;;;20.49;53.02
40490;BME280;26196;52.302;10.572;2022-09-09T09:57:27;100118.97;;;20.49;52.94
40490;BME280;26196;52.302;10.572;2022-09-09T10:01:31;100118.63;;;20.53;52.99
40490;BME280;26196;52.302;10.572;2022-09-09T10:05:35;100117.56;;;20.56;53.08
40490;BME280;26196;52.302;10.572;2022-09-09T10:09:36;100102.47;;;20.57;53.11
40490;BME280;26196;52.302;10.572;2022-09-09T10:17:59;100097.16;;;20.57;52.90
40490;BME280;26196;52.302;10.572;2022-09-09T10:22:26;100103.94;;;20.61;53.09
40490;BME280;26196;52.302;10.572;2022-09-09T10:30:56;100100.31;;;20.62;52.96
40490;BME280;26196;52.302;10.572;2022-09-09T10:39:32;100085.09;;;20.64;52.99
40490;BME280;26196;52.302;10.572;2022-09-09T10:48:23;100094.53;;;20.68;52.95
40490;BME280;26196;52.302;10.572;2022-09-09T10:52:34;100083.91;;;20.68;53.08
40490;BME280;26196;52.302;10.572;2022-09-09T10:56:43;100083.91;;;20.68;52.97
40490;BME280;26196;52.302;10.572;2022-09-09T11:00:54;100083.66;;;20.71;52.86
40490;BME280;26196;52.302;10.572;2022-09-09T11:05:14;100074.72;;;20.72;52.86
40490;BME280;26196;52.302;10.572;2022-09-09T11:09:19;100067.72;;;20.71;53.20
40490;BME280;26196;52.302;10.572;2022-09-09T11:13:26;100074.63;;;20.73;52.96
40490;BME280;26196;52.302;10.572;2022-09-09T11:17:45;100072.78;;;20.74;52.88
40490;BME280;26196;52.302;10.572;2022-09-09T11:21:48;100063.00;;;20.74;53.07
40490;BME280;26196;52.302;10.572;2022-09-09T11:25:58;100065.56;;;20.76;52.70
40490;BME280;26196;52.302;10.572;2022-09-09T11:30:21;100064.72;;;20.75;52.83
40490;BME280;26196;52.302;10.572;2022-09-09T11:38:49;100071.72;;;20.76;53.33
40490;BME280;26196;52.302;10.572;2022-09-09T11:43:08;100079.59;;;20.78;53.34
40490;BME280;26196;52.302;10.572;2022-09-09T11:47:26;100092.75;;;20.80;53.00
40490;BME280;26196;52.302;10.572;2022-09-09T11:51:32;100084.16;;;20.76;53.41
40490;BME280;26196;52.302;10.572;2022-09-09T11:55:34;100086.59;;;20.79;53.70
40490;BME280;26196;52.302;10.572;2022-09-09T11:59:37;100082.00;;;20.81;53.81
40490;BME280;26196;52.302;10.572;2022-09-09T12:03:48;100076.53;;;20.83;53.92
40490;BME280;26196;52.302;10.572;2022-09-09T12:07:55;100072.09;;;20.83;53.77
40490;BME280;26196;52.302;10.572;2022-09-09T12:12:18;100071.97;;;20.85;53.32
40490;BME280;26196;52.302;10.572;2022-09-09T12:16:33;100068.22;;;20.87;52.95
40490;BME280;26196;52.302;10.572;2022-09-09T12:20:36;100058.41;;;20.88;52.59
40490;BME280;26196;52.302;10.572;2022-09-09T12:24:45;100069.94;;;20.88;52.86
40490;BME280;26196;52.302;10.572;2022-09-09T12:28:54;100063.53;;;20.91;53.17
40490;BME280;26196;52.302;10.572;2022-09-09T12:33:02;100068.22;;;20.87;53.11
40490;BME280;26196;52.302;10.572;2022-09-09T12:41:33;100061.56;;;20.93;53.04
40490;BME280;26196;52.302;10.572;2022-09-09T12:45:34;100062.44;;;20.93;53.20
40490;BME280;26196;52.302;10.572;2022-09-09T12:49:38;100064.13;;;20.94;53.29
40490;BME280;26196;52.302;10.572;2022-09-09T12:53:39;100057.00;;;20.95;53.18
40490;BME280;26196;52.302;10.572;2022-09-09T12:57:40;100055.06;;;20.97;52.98
40490;BME280;26196;52.302;10.572;2022-09-09T13:01:41;100048.91;;;20.96;53.03
40490;BME280;26196;52.302;10.572;2022-09-09T13:05:41;100046.34;;;20.95;53.15
40490;BME280;26196;52.302;10.572;2022-09-09T13:09:44;100053.97;;;21.00;53.04
40490;BME280;26196;52.302;10.572;2022-09-09T13:13:51;100064.47;;;21.01;53.28
40490;BME280;26196;52.302;10.572;2022-09-09T13:18:07;100078.53;;;21.03;52.49
40490;BME280;26196;52.302;10.572;2022-09-09T13:22:36;100065.09;;;21.05;52.58
40490;BME280;26196;52.302;10.572;2022-09-09T13:26:37;100065.09;;;21.05;54.21
40490;BME280;26196;52.302;10.572;2022-09-09T13:30:38;100047.19;;;20.95;53.11
40490;BME280;26196;52.302;10.572;2022-09-09T13:34:59;100058.31;;;21.01;52.85
40490;BME280;26196;52.302;10.572;2022-09-09T13:39:03;100046.47;;;20.93;52.55
40490;BME280;26196;52.302;10.572;2022-09-09T13:43:04;100043.34;;;21.00;52.45
40490;BME280;26196;52.302;10.572;2022-09-09T13:47:18;100036.31;;;20.98;53.06
40490;BME280;26196;52.302;10.572;2022-09-09T13:51:47;100046.72;;;21.02;53.05
40490;BME280;26196;52.302;10.572;2022-09-09T13:55:50;100049.16;;;21.05;52.99
40490;BME280;26196;52.302;10.572;2022-09-09T13:59:54;100039.44;;;21.04;53.28
40490;BME280;26196;52.302;10.572;2022-09-09T14:08:54;100046.00;;;21.11;52.85
40490;BME280;26196;52.302;10.572;2022-09-09T14:12:55;100045.03;;;21.12;52.35
40490;BME280;26196;52.302;10.572;2022-09-09T14:16:56;100047.56;;;21.13;51.77
40490;BME280;26196;52.302;10.572;2022-09-09T14:20:57;100042.13;;;21.15;52.12
40490;BME280;26196;52.302;10.572;2022-09-09T14:29:55;100050.72;;;21.18;53.15
40490;BME280;26196;52.302;10.572;2022-09-09T14:33:56;100061.25;;;21.20;52.67
40490;BME280;26196;52.302;10.572;2022-09-09T14:37:57;100057.50;;;21.23;53.29
40490;BME280;26196;52.302;10.572;2022-09-09T14:41:58;100055.69;;;21.23;52.85
40490;BME280;26196;52.302;10.572;2022-09-09T14:46:13;100053.03;;;21.23;52.44
40490;BME280;26196;52.302;10.572;2022-09-09T14:50:14;100049.38;;;21.24;51.95
40490;BME280;26196;52.302;10.572;2022-09-09T14:54:16;100044.31;;;21.21;52.07
40490;BME280;26196;52.302;10.572;2022-09-09T14:58:16;100044.06;;;21.24;52.26
40490;BME280;26196;52.302;10.572;2022-09-09T15:02:17;100043.81;;;21.27;52.44
40490;BME280;26196;52.302;10.572;2022-09-09T15:06:18;100039.47;;;21.26;52.66
40490;BME280;26196;52.302;10.572;2022-09-09T15:10:20;100043.94;;;21.26;52.67
40490;BME280;26196;52.302;10.572;2022-09-09T15:14:21;100042.59;;;21.31;52.76
40490;BME280;26196;52.302;10.572;2022-09-09T15:18:22;100043.59;;;21.30;52.70
40490;BME280;26196;52.302;10.572;2022-09-09T15:22:23;100039.34;;;21.28;52.76
40490;BME280;26196;52.302;10.572;2022-09-09T15:26:25;100052.41;;;21.31;52.33
40490;BME280;26196;52.302;10.572;2022-09-09T15:30:27;100049.75;;;21.31;52.20
40490;BME280;26196;52.302;10.572;2022-09-09T15:34:28;100044.28;;;21.32;52.09
40490;BME280;26196;52.302;10.572;2022-09-09T15:38:31;100052.28;;;21.32;52.21
40490;BME280;26196;52.302;10.572;2022-09-09T15:42:31;100051.44;;;21.32;52.38
40490;BME280;26196;52.302;10.572;2022-09-09T15:46:34;100046.94;;;21.32;52.63
40490;BME280;26196;52.302;10.572;2022-09-09T15:50:37;100048.66;;;21.33;52.40
40490;BME280;26196;52.302;10.572;2022-09-09T15:59:35;100047.69;;;21.34;52.68
40490;BME280;26196;52.302;10.572;2022-09-09T16:08:18;100055.66;;;21.34;52.74
40490;BME280;26196;52.302;10.572;2022-09-09T16:12:19;100049.50;;;21.34;52.48
40490;BME280;26196;52.302;10.572;2022-09-09T16:16:22;100058.22;;;21.36;52.94
40490;BME280;26196;52.302;10.572;2022-09-09T16:20:24;100053.72;;;21.36;52.46
40490;BME280;26196;52.302;10.572;2022-09-09T16:24:25;100050.34;;;21.34;52.49
40490;BME280;26196;52.302;10.572;2022-09-09T16:28:27;100055.56;;;21.36;51.94
40490;BME280;26196;52.302;10.572;2022-09-09T16:32:28;100063.53;;;21.36;52.70
40490;BME280;26196;52.302;10.572;2022-09-09T16:36:32;100055.81;;;21.33;52.79
40490;BME280;26196;52.302;10.572;2022-09-09T16:40:36;100059.31;;;21.33;52.83
40490;BME280;26196;52.302;10.572;2022-09-09T16:44:37;100056.50;;;21.35;52.97
40490;BME280;26196;52.302;10.572;2022-09-09T16:48:38;100053.97;;;21.33;52.57
40490;BME280;26196;52.302;10.572;2022-09-09T16:52:38;100048.66;;;21.33;52.61
40490;BME280;26196;52.302;10.572;2022-09-09T16:56:41;100044.28;;;21.32;52.44
40490;BME280;26196;52.302;10.572;2022-09-09T17:00:42;100034.03;;;21.28;52.58
40490;BME280;26196;52.302;10.572;2022-09-09T17:04:43;100040.91;;;21.30;52.75
40490;BME280;26196;52.302;10.572;2022-09-09T17:08:43;100052.53;;;21.29;52.63
40490;BME280;26196;52.302;10.572;2022-09-09T17:12:44;100049.03;;;21.29;52.71
40490;BME280;26196;52.302;10.572;2022-09-09T17:16:45;100052.28;;;21.32;52.59
40490;BME280;26196;52.302;10.572;2022-09-09T17:20:46;100060.41;;;21.31;52.51
40490;BME280;26196;52.302;10.572;2022-09-09T17:24:47;100057.72;;;21.31;52.85
40490;BME280;26196;52.302;10.572;2022-09-09T17:28:47;100061.59;;;21.27;52.54
40490;BME280;26196;52.302;10.572;2022-09-09T17:32:48;100068.50;;;21.29;52.54
40490;BME280;26196;52.302;10.572;2022-09-09T17:36:48;100073.56;;;21.32;52.63
40490;BME280;26196;52.302;10.572;2022-09-09T17:40:49;100067.91;;;21.26;52.77
40490;BME280;26196;52.302;10.572;2022-09-09T17:44:49;100073.81;;;21.29;52.71
40490;BME280;26196;52.302;10.572;2022-09-09T17:48:54;100084.22;;;21.32;52.94
40490;BME280;26196;52.302;10.572;2022-09-09T17:52:56;100080.59;;;21.33;53.42
40490;BME280;26196;52.302;10.572;2022-09-09T17:56:57;100080.72;;;21.32;53.19
40490;BME280;26196;52.302;10.572;2022-09-09T18:01:06;100075.63;;;21.29;53.13
40490;BME280;26196;52.302;10.572;2022-09-09T18:05:07;100080.59;;;21.33;53.14
40490;BME280;26196;52.302;10.572;2022-09-09T18:09:11;100080.13;;;21.28;53.33
40490;BME280;26196;52.302;10.572;2022-09-09T18:13:12;100078.91;;;21.32;53.38
40490;BME280;26196;52.302;10.572;2022-09-09T18:17:12;100080.13;;;21.28;53.39
40490;BME280;26196;52.302;10.572;2022-09-09T18:21:13;100090.53;;;21.31;53.30
40490;BME280;26196;52.302;10.572;2022-09-09T18:25:13;100106.38;;;21.33;53.33
40490;BME280;26196;52.302;10.572;2022-09-09T18:29:16;100097.66;;;21.31;53.37
40490;BME280;26196;52.302;10.572;2022-09-09T18:33:19;100097.78;;;21.29;53.62
40490;BME280;26196;52.302;10.572;2022-09-09T18:37:19;100105.50;;;21.32;53.43
40490;BME280;26196;52.302;10.572;2022-09-09T18:41:28;100102.84;;;21.32;53.52
40490;BME280;26196;52.302;10.572;2022-09-09T18:45:29;100099.69;;;21.27;53.64
40490;BME280;26196;52.302;10.572;2022-09-09T18:49:30;100109.25;;;21.30;53.59
40490;BME280;26196;52.302;10.572;2022-09-09T18:53:32;100110.84;;;21.32;53.72
40490;BME280;26196;52.302;10.572;2022-09-09T18:57:34;100112.06;;;21.28;54.10
40490;BME280;26196;52.302;10.572;2022-09-09T19:01:35;100114.72;;;21.28;54.48
40490;BME280;26196;52.302;10.572;2022-09-09T19:05:35;100108.41;;;21.29;53.74
40490;BME280;26196;52.302;10.572;2022-09-09T19:09:36;100111.09;;;21.29;53.86
40490;BME280;26196;52.302;10.572;2022-09-09T19:13:36;100108.56;;;21.28;53.88
40490;BME280;26196;52.302;10.572;2022-09-09T19:17:38;100107.47;;;21.30;53.56
40490;BME280;26196;52.302;10.572;2022-09-09T19:21:39;100100.69;;;21.26;53.56
40490;BME280;26196;52.302;10.572;2022-09-09T19:25:41;100113.75;;;21.29;54.16
40490;BME280;26196;52.302;10.572;2022-09-09T19:29:41;100114.72;;;21.28;53.80
40490;BME280;26196;52.302;10.572;2022-09-09T19:33:45;100116.53;;;21.28;53.92
40490;BME280;26196;52.302;10.572;2022-09-09T19:37:46;100122.72;;;21.28;53.23
40490;BME280;26196;52.302;10.572;2022-09-09T19:41:47;100112.16;;;21.27;53.32
40490;BME280;26196;52.302;10.572;2022-09-09T19:45:59;100121.97;;;21.26;54.21
40490;BME280;26196;52.302;10.572;2022-09-09T19:50:01;100120.28;;;21.25;53.97
40490;BME280;26196;52.302;10.572;2022-09-09T19:54:07;100126.56;;;21.24;53.40
40490;BME280;26196;52.302;10.572;2022-09-09T19:58:08;100129.22;;;21.24;53.65
40490;BME280;26196;52.302;10.572;2022-09-09T20:02:11;100119.81;;;21.20;53.19
40490;BME280;26196;52.302;10.572;2022-09-09T20:06:15;100123.06;;;21.24;53.79
40490;BME280;26196;52.302;10.572;2022-09-09T20:10:16;100123.91;;;21.24;53.53
40490;BME280;26196;52.302;10.572;2022-09-09T20:14:16;100122.22;;;21.23;52.96
40490;BME280;26196;52.302;10.572;2022-09-09T20:18:17;100124.03;;;21.23;53.12
40490;BME280;26196;52.302;10.572;2022-09-09T20:22:17;100133.94;;;21.20;53.89
40490;BME280;26196;52.302;10.572;2022-09-09T20:26:22;100131.41;;;21.19;53.86
40490;BME280;26196;52.302;10.572;2022-09-09T20:30:25;100139.38;;;21.19;53.42
40490;BME280;26196;52.302;10.572;2022-09-09T20:34:25;100143.13;;;21.16;53.57
40490;BME280;26196;52.302;10.572;2022-09-09T20:38:27;100146.66;;;21.17;53.33
40490;BME280;26196;52.302;10.572;2022-09-09T20:42:27;100147.59;;;21.16;53.28
40490;BME280;26196;52.302;10.572;2022-09-09T20:46:33;100156.56;;;21.15;53.78
40490;BME280;26196;52.302;10.572;2022-09-09T20:50:35;100160.19;;;21.14;53.03
40490;BME280;26196;52.302;10.572;2022-09-09T20:54:36;100165.75;;;21.11;53.73
40490;BME280;26196;52.302;10.572;2022-09-09T20:58:37;100181.72;;;21.11;52.86
40490;BME280;26196;52.302;10.572;2022-09-09T21:02:38;100179.28;;;21.08;53.15
40490;BME280;26196;52.302;10.572;2022-09-09T21:06:39;100175.66;;;21.09;53.26
40490;BME280;26196;52.302;10.572;2022-09-09T21:10:43;100184.72;;;21.06;53.75
40490;BME280;26196;52.302;10.572;2022-09-09T21:14:45;100187.50;;;21.05;52.25
40490;BME280;26196;52.302;10.572;2022-09-09T21:18:47;100182.78;;;21.08;52.86
40490;BME280;26196;52.302;10.572;2022-09-09T21:22:48;100191.00;;;21.05;53.32
40490;BME280;26196;52.302;10.572;2022-09-09T21:26:48;100192.59;;;21.08;53.23
40490;BME280;26196;52.302;10.572;2022-09-09T21:30:50;100190.41;;;21.02;53.12
40490;BME280;26196;52.302;10.572;2022-09-09T21:34:51;100193.78;;;21.04;53.06
40490;BME280;26196;52.302;10.572;2022-09-09T21:38:52;100200.81;;;21.05;52.70
40490;BME280;26196;52.302;10.572;2022-09-09T21:42:53;100201.75;;;21.04;53.14
40490;BME280;26196;52.302;10.572;2022-09-09T21:46:53;100188.59;;;21.02;52.91
40490;BME280;26196;52.302;10.572;2022-09-09T21:50:53;100182.44;;;21.02;51.91
40490;BME280;26196;52.302;10.572;2022-09-09T21:54:54;100179.97;;;20.98;52.22
40490;BME280;26196;52.302;10.572;2022-09-09T21:58:56;100191.34;;;21.01;52.92
40490;BME280;26196;52.302;10.572;2022-09-09T22:02:58;100180.94;;;20.97;52.76
40490;BME280;26196;52.302;10.572;2022-09-09T22:06:59;100195.94;;;20.98;51.39
40490;BME280;26196;52.302;10.572;2022-09-09T22:11:07;100192.56;;;20.96;52.82
40490;BME280;26196;52.302;10.572;2022-09-09T22:15:08;100197.91;;;20.96;52.44
40490;BME280;26196;52.302;10.572;2022-09-09T22:19:08;100207.69;;;20.96;53.03
40490;BME280;26196;52.302;10.572;2022-09-09T22:23:12;100196.41;;;20.92;52.95
40490;BME280;26196;52.302;10.572;2022-09-09T22:27:13;100196.31;;;20.94;52.68
40490;BME280;26196;52.302;10.572;2022-09-09T22:31:15;100191.94;;;20.93;53.14
40490;BME280;26196;52.302;10.572;2022-09-09T22:35:15;100194.59;;;20.93;52.59
40490;BME280;26196;52.302;10.572;2022-09-09T22:39:16;100190.34;;;20.90;52.64